createdAt,value
2022-10-17T00:02:13.612Z,11.80
2022-10-17T00:04:46.313Z,11.90
2022-10-17T00:07:18.828Z,11.90
2022-10-17T00:09:51.536Z,11.90
2022-10-17T00:12:24.024Z,11.90
2022-10-17T00:14:56.956Z,11.90
2022-10-17T00:17:29.880Z,11.90
2022-10-17T00:20:03.232Z,11.90
2022-10-17T00:25:13.348Z,11.90
2022-10-17T00:27:45.932Z,11.90
2022-10-17T00:30:18.646Z,11.90
2022-10-17T00:32:51.148Z,11.90
2022-10-17T00:35:23.812Z,11.90
2022-10-17T00:37:56.272Z,12.00
2022-10-17T00:40:29.012Z,12.10
2022-10-17T00:43:01.476Z,12.10
2022-10-17T00:45:34.192Z,12.10
2022-10-17T00:48:11.524Z,12.10
2022-10-17T00:50:48.756Z,12.10
2022-10-17T00:53:21.297Z,12.10
2022-10-17T00:55:54.632Z,12.10
2022-10-17T00:58:27.246Z,12.00
2022-10-17T01:01:00.565Z,12.00
2022-10-17T01:03:33.112Z,11.90
2022-10-17T01:06:05.965Z,11.90
2022-10-17T01:08:38.756Z,11.80
2022-10-17T01:11:56.320Z,11.80
2022-10-17T01:14:57.680Z,11.80
2022-10-17T01:17:37.458Z,11.80
2022-10-17T01:20:32.240Z,11.80
2022-10-17T01:23:28.743Z,11.80
2022-10-17T01:26:23.105Z,11.70
2022-10-17T01:29:09.021Z,11.80
2022-10-17T01:31:54.760Z,11.90
2022-10-17T01:34:45.024Z,12.00
2022-10-17T01:37:34.464Z,12.00
2022-10-17T01:40:20.362Z,12.10
2022-10-17T01:43:21.102Z,12.10
2022-10-17T01:46:23.992Z,12.20
2022-10-17T01:49:00.684Z,12.30
2022-10-17T01:51:42.308Z,12.40
2022-10-17T01:54:23.903Z,12.50
2022-10-17T01:57:01.579Z,12.60
2022-10-17T01:59:41.921Z,12.60
2022-10-17T02:02:16.135Z,12.70
2022-10-17T02:04:51.543Z,12.70
2022-10-17T02:07:24.447Z,12.70
2022-10-17T02:09:56.928Z,12.70
2022-10-17T02:12:41.340Z,12.80
2022-10-17T02:15:46.767Z,12.80
2022-10-17T02:18:28.462Z,12.80
2022-10-17T02:21:14.589Z,12.80
2022-10-17T02:24:31.724Z,12.90
2022-10-17T02:27:15.122Z,12.90
2022-10-17T02:29:56.094Z,12.80
2022-10-17T02:32:40.655Z,12.80
2022-10-17T02:35:15.766Z,12.80
2022-10-17T02:37:49.117Z,12.70
2022-10-17T02:40:24.223Z,12.70
2022-10-17T02:42:58.557Z,12.70
2022-10-17T02:45:36.024Z,12.70
2022-10-17T02:48:27.813Z,12.70
2022-10-17T02:51:27.893Z,12.70
2022-10-17T02:54:03.395Z,12.70
2022-10-17T02:56:44.117Z,12.70
2022-10-17T02:59:20.342Z,12.60
2022-10-17T03:01:53.471Z,12.50
2022-10-17T03:04:25.953Z,12.50
2022-10-17T03:06:58.989Z,12.50
2022-10-17T03:09:31.444Z,12.50
2022-10-17T03:12:05.318Z,12.50
2022-10-17T03:14:37.817Z,12.50
2022-10-17T03:17:10.485Z,12.50
2022-10-17T03:19:43.041Z,12.50
2022-10-17T03:22:15.727Z,12.50
2022-10-17T03:24:48.173Z,12.40
2022-10-17T03:27:21.169Z,12.40
2022-10-17T03:29:53.661Z,12.40
2022-10-17T03:32:26.378Z,12.40
2022-10-17T03:34:58.859Z,12.40
2022-10-17T03:37:31.801Z,12.50
2022-10-17T03:40:04.891Z,12.50
2022-10-17T03:42:37.588Z,12.50
2022-10-17T03:45:10.404Z,12.50
2022-10-17T03:47:43.130Z,12.60
2022-10-17T03:50:15.740Z,12.60
2022-10-17T03:52:49.498Z,12.60
2022-10-17T03:55:22.021Z,12.60
2022-10-17T03:57:54.741Z,12.70
2022-10-17T04:00:27.287Z,12.60
2022-10-17T04:03:00.190Z,12.70
2022-10-17T04:05:32.664Z,12.80
2022-10-17T04:08:05.712Z,12.80
2022-10-17T04:10:38.608Z,12.80
2022-10-17T04:13:11.532Z,12.80
2022-10-17T04:15:54.832Z,12.90
2022-10-17T04:18:27.836Z,12.90
2022-10-17T04:21:04.508Z,12.90
2022-10-17T04:23:37.268Z,12.90
2022-10-17T04:26:09.728Z,12.90
2022-10-17T04:28:42.423Z,13.00
2022-10-17T04:31:15.364Z,12.90
2022-10-17T04:33:49.200Z,12.90
2022-10-17T04:36:23.052Z,13.00
2022-10-17T04:38:55.724Z,13.00
2022-10-17T04:41:28.184Z,12.90
2022-10-17T04:44:00.922Z,12.90
2022-10-17T04:46:34.795Z,12.90
2022-10-17T04:49:07.992Z,12.90
2022-10-17T04:51:40.565Z,13.00
2022-10-17T04:54:13.564Z,13.00
2022-10-17T04:56:47.219Z,13.10
2022-10-17T04:59:19.922Z,13.10
2022-10-17T05:01:52.376Z,13.10
2022-10-17T05:04:25.585Z,13.00
2022-10-17T05:06:58.054Z,13.00
2022-10-17T05:09:30.991Z,12.90
2022-10-17T05:12:05.465Z,12.80
2022-10-17T05:14:40.775Z,12.80
2022-10-17T05:17:13.263Z,12.70
2022-10-17T05:19:46.099Z,12.70
2022-10-17T05:22:18.538Z,12.60
2022-10-17T05:24:51.209Z,12.60
2022-10-17T05:27:23.701Z,12.60
2022-10-17T05:29:56.339Z,12.50
2022-10-17T05:32:29.119Z,12.50
2022-10-17T05:35:04.267Z,12.50
2022-10-17T05:37:36.793Z,12.60
2022-10-17T05:40:10.014Z,12.60
2022-10-17T05:42:49.402Z,12.60
2022-10-17T05:45:23.604Z,12.60
2022-10-17T05:47:56.068Z,12.60
2022-10-17T05:50:28.884Z,12.70
2022-10-17T05:53:01.831Z,12.70
2022-10-17T05:55:34.558Z,12.70
2022-10-17T05:58:07.417Z,12.80
2022-10-17T06:00:42.389Z,12.80
2022-10-17T06:03:23.681Z,12.90
2022-10-17T06:05:57.035Z,12.90
2022-10-17T06:08:29.498Z,12.80
2022-10-17T06:11:07.537Z,12.80
2022-10-17T06:14:02.054Z,12.80
2022-10-17T06:16:40.161Z,12.80
2022-10-17T06:19:12.705Z,12.80
2022-10-17T06:21:45.381Z,12.80
2022-10-17T06:24:17.873Z,12.90
2022-10-17T06:26:51.206Z,12.90
2022-10-17T06:29:23.685Z,13.00
2022-10-17T06:31:56.501Z,13.00
2022-10-17T06:34:29.001Z,13.00
2022-10-17T06:37:01.846Z,13.10
2022-10-17T06:39:35.949Z,13.20
2022-10-17T06:42:08.709Z,13.30
2022-10-17T06:44:41.305Z,13.30
2022-10-17T06:47:16.588Z,13.40
2022-10-17T06:49:51.810Z,13.50
2022-10-17T06:52:24.526Z,13.60
2022-10-17T06:54:57.053Z,13.70
2022-10-17T06:57:30.112Z,13.80
2022-10-17T07:00:04.265Z,13.90
2022-10-17T07:02:37.031Z,14.00
2022-10-17T07:05:10.089Z,14.20
2022-10-17T07:07:44.772Z,14.30
2022-10-17T07:10:18.949Z,14.40
2022-10-17T07:12:51.712Z,14.50
2022-10-17T07:15:24.182Z,14.60
2022-10-17T07:17:57.528Z,14.70
2022-10-17T07:20:30.406Z,14.80
2022-10-17T07:23:03.431Z,14.90
2022-10-17T07:25:40.023Z,15.10
2022-10-17T07:28:14.750Z,15.10
2022-10-17T07:30:50.691Z,15.20
2022-10-17T07:33:26.329Z,15.30
2022-10-17T07:36:00.235Z,15.40
2022-10-17T07:38:33.412Z,15.50
2022-10-17T07:41:07.692Z,15.60
2022-10-17T07:43:41.793Z,15.70
2022-10-17T07:46:14.360Z,15.80
2022-10-17T07:48:47.160Z,16.00
2022-10-17T07:51:20.239Z,16.20
2022-10-17T07:53:53.053Z,16.40
2022-10-17T07:56:25.498Z,16.50
2022-10-17T07:58:58.364Z,16.60
2022-10-17T08:01:31.776Z,16.70
2022-10-17T08:04:04.493Z,16.70
2022-10-17T08:06:36.980Z,16.80
2022-10-17T08:09:09.770Z,16.80
2022-10-17T08:11:44.081Z,16.70
2022-10-17T08:14:19.841Z,16.80
2022-10-17T08:16:54.923Z,16.80
2022-10-17T08:19:27.693Z,16.80
2022-10-17T08:22:01.244Z,16.90
2022-10-17T08:24:34.000Z,16.80
2022-10-17T08:27:11.474Z,16.90
2022-10-17T08:29:48.415Z,16.90
2022-10-17T08:32:26.542Z,17.00
2022-10-17T08:34:59.368Z,17.00
2022-10-17T08:37:32.767Z,17.00
2022-10-17T08:40:06.721Z,17.10
2022-10-17T08:42:54.422Z,17.10
2022-10-17T08:45:33.872Z,17.20
2022-10-17T08:48:12.655Z,17.30
2022-10-17T08:50:51.396Z,17.40
2022-10-17T08:53:48.905Z,17.40
2022-10-17T08:56:44.182Z,17.60
2022-10-17T08:59:28.842Z,17.60
2022-10-17T09:02:40.217Z,17.70
2022-10-17T09:05:34.949Z,17.80
2022-10-17T09:08:40.215Z,17.80
2022-10-17T09:11:41.871Z,17.90
2022-10-17T09:14:36.208Z,18.00
2022-10-17T09:17:13.832Z,18.10
2022-10-17T09:20:10.384Z,18.10
2022-10-17T09:25:42.992Z,18.30
2022-10-17T09:28:36.535Z,18.30
2022-10-17T09:31:23.182Z,18.40
2022-10-17T09:33:58.081Z,18.50
2022-10-17T09:36:36.967Z,18.60
2022-10-17T09:39:18.817Z,18.70
2022-10-17T09:41:59.547Z,18.70
2022-10-17T09:44:34.724Z,18.80
2022-10-17T09:47:16.004Z,18.90
2022-10-17T09:49:49.257Z,19.00
2022-10-17T09:52:33.229Z,19.00
2022-10-17T09:55:21.455Z,19.00
2022-10-17T09:58:05.468Z,19.10
2022-10-17T10:00:45.518Z,19.20
2022-10-17T10:03:21.159Z,19.20
2022-10-17T10:06:04.270Z,19.30
2022-10-17T10:08:51.671Z,19.30
2022-10-17T10:11:44.009Z,19.30
2022-10-17T10:14:40.777Z,19.40
2022-10-17T10:17:39.626Z,19.50
2022-10-17T10:20:34.248Z,19.60
2022-10-17T10:23:21.466Z,19.60
2022-10-17T10:25:56.268Z,19.70
2022-10-17T10:28:33.096Z,19.80
2022-10-17T10:31:10.023Z,19.90
2022-10-17T10:33:48.082Z,20.00
2022-10-17T10:36:23.589Z,20.10
2022-10-17T10:39:01.268Z,20.20
2022-10-17T10:41:48.216Z,20.30
2022-10-17T10:44:26.886Z,20.40
2022-10-17T10:47:17.317Z,20.40
2022-10-17T10:49:52.752Z,20.50
2022-10-17T10:52:41.543Z,20.50
2022-10-17T10:55:27.955Z,20.60
2022-10-17T10:58:15.531Z,20.60
2022-10-17T11:00:49.713Z,20.70
2022-10-17T11:03:29.272Z,20.70
2022-10-17T11:06:12.775Z,20.70
2022-10-17T11:09:11.536Z,20.80
2022-10-17T11:12:15.276Z,20.80
2022-10-17T11:15:09.596Z,20.80
2022-10-17T11:18:23.852Z,20.90
2022-10-17T11:20:59.091Z,20.90
2022-10-17T11:23:48.023Z,20.90
2022-10-17T11:26:32.391Z,21.00
2022-10-17T11:29:08.222Z,21.10
2022-10-17T11:31:47.407Z,21.10
2022-10-17T11:34:29.274Z,21.20
2022-10-17T11:37:09.591Z,21.20
2022-10-17T11:39:54.095Z,21.20
2022-10-17T11:42:33.831Z,21.20
2022-10-17T11:45:15.931Z,21.30
2022-10-17T11:47:58.378Z,21.30
2022-10-17T11:53:45.404Z,21.30
2022-10-17T11:56:26.745Z,21.30
2022-10-17T11:59:32.938Z,21.30
2022-10-17T12:02:11.779Z,21.30
2022-10-17T12:05:05.728Z,21.30
2022-10-17T12:08:00.201Z,21.40
2022-10-17T12:10:58.256Z,21.40
2022-10-17T12:13:33.678Z,21.40
2022-10-17T12:16:29.596Z,21.50
2022-10-17T12:19:02.050Z,21.50
2022-10-17T12:21:57.791Z,21.60
2022-10-17T12:24:45.403Z,21.60
2022-10-17T12:27:36.018Z,21.70
2022-10-17T12:30:20.944Z,21.70
2022-10-17T12:33:07.435Z,21.80
2022-10-17T12:35:40.552Z,21.90
2022-10-17T12:38:18.978Z,22.00
2022-10-17T12:40:54.592Z,22.00
2022-10-17T12:43:30.290Z,22.00
2022-10-17T12:46:05.214Z,22.10
2022-10-17T12:48:37.866Z,22.10
2022-10-17T12:51:40.510Z,22.10
2022-10-17T12:54:15.867Z,22.10
2022-10-17T12:56:49.740Z,22.20
2022-10-17T12:59:25.841Z,22.30
2022-10-17T13:02:01.791Z,22.30
2022-10-17T13:04:36.980Z,22.40
2022-10-17T13:07:19.944Z,22.40
2022-10-17T13:09:53.048Z,22.50
2022-10-17T13:12:27.535Z,22.50
2022-10-17T13:15:00.983Z,22.50
2022-10-17T13:17:34.889Z,22.50
2022-10-17T13:20:31.538Z,22.60
2022-10-17T13:23:25.824Z,22.60
2022-10-17T13:26:10.619Z,22.60
2022-10-17T13:28:44.032Z,22.60
2022-10-17T13:31:30.078Z,22.60
2022-10-17T13:34:05.727Z,22.60
2022-10-17T13:36:38.543Z,22.60
2022-10-17T13:39:17.197Z,22.60
2022-10-17T13:41:56.736Z,22.60
2022-10-17T13:44:33.988Z,22.60
2022-10-17T13:47:06.810Z,22.50
2022-10-17T13:49:44.320Z,22.60
2022-10-17T13:52:25.170Z,22.60
2022-10-17T13:55:17.570Z,22.60
2022-10-17T13:57:52.428Z,22.60
2022-10-17T14:00:25.170Z,22.60
2022-10-17T14:02:57.980Z,22.50
2022-10-17T14:05:30.456Z,22.50
2022-10-17T14:08:14.511Z,22.60
2022-10-17T14:10:49.506Z,22.60
2022-10-17T14:13:25.942Z,22.60
2022-10-17T14:16:01.964Z,22.60
2022-10-17T14:18:37.047Z,22.50
2022-10-17T14:24:20.979Z,22.50
2022-10-17T14:26:59.477Z,22.40
2022-10-17T14:29:50.026Z,22.40
2022-10-17T14:32:22.840Z,22.40
2022-10-17T14:35:10.575Z,22.50
2022-10-17T14:37:53.055Z,22.40
2022-10-17T14:40:28.051Z,22.30
2022-10-17T14:43:05.180Z,22.20
2022-10-17T14:45:39.754Z,22.10
2022-10-17T14:48:15.145Z,21.90
2022-10-17T14:51:10.732Z,21.80
2022-10-17T14:54:23.708Z,21.60
2022-10-17T14:56:56.427Z,21.40
2022-10-17T14:59:53.302Z,21.20
2022-10-17T15:02:22.135Z,21.00
2022-10-17T15:04:55.141Z,20.90
2022-10-17T15:07:27.929Z,20.80
2022-10-17T15:10:00.429Z,20.60
2022-10-17T15:12:33.254Z,20.50
2022-10-17T15:15:06.228Z,20.40
2022-10-17T15:17:39.448Z,20.30
2022-10-17T15:20:17.096Z,20.20
2022-10-17T15:22:49.816Z,20.10
2022-10-17T15:25:25.484Z,20.00
2022-10-17T15:27:59.140Z,19.90
2022-10-17T15:30:35.698Z,19.80
2022-10-17T15:33:08.421Z,19.70
2022-10-17T15:35:43.907Z,19.50
2022-10-17T15:38:20.636Z,19.40
2022-10-17T15:40:56.229Z,19.30
2022-10-17T15:43:33.621Z,19.20
2022-10-17T15:46:15.046Z,19.10
2022-10-17T15:48:50.956Z,19.00
2022-10-17T15:51:23.636Z,18.80
2022-10-17T15:53:56.585Z,18.70
2022-10-17T15:56:38.392Z,18.60
2022-10-17T15:59:22.723Z,18.50
2022-10-17T16:01:55.250Z,18.40
2022-10-17T16:04:29.227Z,18.40
2022-10-17T16:07:01.732Z,18.40
2022-10-17T16:09:34.938Z,18.30
2022-10-17T16:12:14.177Z,18.20
2022-10-17T16:14:46.922Z,18.10
2022-10-17T16:17:19.471Z,18.10
2022-10-17T16:19:52.232Z,18.00
2022-10-17T16:22:32.656Z,18.00
2022-10-17T16:25:09.864Z,18.00
2022-10-17T16:27:42.432Z,17.90
2022-10-17T16:30:15.885Z,17.80
2022-10-17T16:32:48.881Z,17.80
2022-10-17T16:35:24.443Z,17.80
2022-10-17T16:37:57.913Z,17.70
2022-10-17T16:40:30.605Z,17.70
2022-10-17T16:43:03.091Z,17.60
2022-10-17T16:45:36.638Z,17.60
2022-10-17T16:48:09.715Z,17.60
2022-10-17T16:50:42.663Z,17.50
2022-10-17T16:53:15.225Z,17.50
2022-10-17T16:55:59.780Z,17.50
2022-10-17T16:58:32.464Z,17.40
2022-10-17T17:01:08.876Z,17.40
2022-10-17T17:03:43.665Z,17.30
2022-10-17T17:06:22.215Z,17.30
2022-10-17T17:08:56.092Z,17.20
2022-10-17T17:11:29.351Z,17.10
2022-10-17T17:14:02.681Z,17.10
2022-10-17T17:16:35.987Z,17.00
2022-10-17T17:19:14.291Z,17.00
2022-10-17T17:21:52.817Z,16.90
2022-10-17T17:24:25.873Z,16.80
2022-10-17T17:26:58.593Z,16.70
2022-10-17T17:29:31.216Z,16.70
2022-10-17T17:32:04.016Z,16.60
2022-10-17T17:34:37.732Z,16.60
2022-10-17T17:37:10.783Z,16.50
2022-10-17T17:39:43.427Z,16.50
2022-10-17T17:42:16.139Z,16.40
2022-10-17T17:44:49.642Z,16.40
2022-10-17T17:47:22.417Z,16.40
2022-10-17T17:49:54.877Z,16.40
2022-10-17T17:52:27.743Z,16.40
2022-10-17T17:55:00.377Z,16.30
2022-10-17T17:57:33.185Z,16.30
2022-10-17T18:00:06.618Z,16.20
2022-10-17T18:02:42.214Z,16.10
2022-10-17T18:05:17.063Z,16.10
2022-10-17T18:07:49.888Z,16.10
2022-10-17T18:10:22.669Z,16.10
2022-10-17T18:12:55.858Z,16.10
2022-10-17T18:15:29.866Z,16.10
2022-10-17T18:18:02.583Z,16.00
2022-10-17T18:20:36.175Z,15.90
2022-10-17T18:23:10.108Z,15.90
2022-10-17T18:25:42.654Z,15.90
2022-10-17T18:28:15.675Z,16.00
2022-10-17T18:30:54.174Z,15.90
2022-10-17T18:33:26.879Z,15.90
2022-10-17T18:36:07.337Z,15.80
2022-10-17T18:38:40.296Z,15.90
2022-10-17T18:41:15.566Z,15.80
2022-10-17T18:43:50.117Z,15.80
2022-10-17T18:46:29.443Z,15.80
2022-10-17T18:49:03.160Z,15.70
2022-10-17T18:51:35.936Z,15.70
2022-10-17T18:54:14.398Z,15.60
2022-10-17T18:56:52.155Z,15.60
2022-10-17T18:59:25.023Z,15.50
2022-10-17T19:01:57.609Z,15.40
2022-10-17T19:04:30.603Z,15.40
2022-10-17T19:07:03.082Z,15.40
2022-10-17T19:09:35.832Z,15.40
2022-10-17T19:12:08.386Z,15.40
2022-10-17T19:14:41.205Z,15.40
2022-10-17T19:17:13.673Z,15.30
2022-10-17T19:19:50.152Z,15.30
2022-10-17T19:22:22.676Z,15.30
2022-10-17T19:24:55.372Z,15.20
2022-10-17T19:27:28.053Z,15.20
2022-10-17T19:30:01.109Z,15.20
2022-10-17T19:32:34.071Z,15.10
2022-10-17T19:35:07.443Z,15.10
2022-10-17T19:37:40.464Z,15.00
2022-10-17T19:40:14.153Z,15.00
2022-10-17T19:42:47.322Z,15.00
2022-10-17T19:45:20.033Z,14.90
2022-10-17T19:47:52.580Z,14.90
2022-10-17T19:50:25.269Z,14.90
2022-10-17T19:52:58.100Z,14.90
2022-10-17T19:55:32.976Z,14.90
2022-10-17T19:58:05.585Z,14.90
2022-10-17T20:00:38.339Z,14.90
2022-10-17T20:03:10.845Z,14.90
2022-10-17T20:05:43.944Z,15.00
2022-10-17T20:08:17.220Z,14.90
2022-10-17T20:10:49.951Z,14.90
2022-10-17T20:13:25.905Z,14.90
2022-10-17T20:15:59.595Z,14.80
2022-10-17T20:18:37.925Z,14.70
2022-10-17T20:21:13.929Z,14.60
2022-10-17T20:23:49.063Z,14.50
2022-10-17T20:26:39.622Z,14.50
2022-10-17T20:29:20.608Z,14.50
2022-10-17T20:32:00.986Z,14.50
2022-10-17T20:34:35.670Z,14.50
2022-10-17T20:37:42.820Z,14.50
2022-10-17T20:40:35.411Z,14.50
2022-10-17T20:43:10.944Z,14.50
2022-10-17T20:45:51.200Z,14.50
2022-10-17T20:48:26.731Z,14.60
2022-10-17T20:50:59.211Z,14.60
2022-10-17T20:53:36.978Z,14.50
2022-10-17T20:56:21.105Z,14.50
2022-10-17T20:59:00.029Z,14.50
2022-10-17T21:01:34.287Z,14.50
2022-10-17T21:04:33.368Z,14.40
2022-10-17T21:07:00.293Z,14.40
2022-10-17T21:09:33.258Z,14.50
2022-10-17T21:12:05.807Z,14.40
2022-10-17T21:14:38.794Z,14.40
2022-10-17T21:17:11.297Z,14.40
2022-10-17T21:19:43.953Z,14.40
2022-10-17T21:22:16.837Z,14.40
2022-10-17T21:24:49.532Z,14.30
2022-10-17T21:27:22.047Z,14.30
2022-10-17T21:29:54.723Z,14.30
2022-10-17T21:32:40.446Z,14.20
2022-10-17T21:35:20.380Z,14.20
2022-10-17T21:37:52.868Z,14.30
2022-10-17T21:40:25.833Z,14.20
2022-10-17T21:42:58.355Z,14.30
2022-10-17T21:45:31.027Z,14.30
2022-10-17T21:48:19.179Z,14.30
2022-10-17T21:51:00.213Z,14.30
2022-10-17T21:53:33.267Z,14.30
2022-10-17T21:56:10.290Z,14.30
2022-10-17T21:58:43.088Z,14.20
2022-10-17T22:01:25.868Z,14.10
2022-10-17T22:04:02.212Z,14.10
2022-10-17T22:06:40.197Z,14.10
2022-10-17T22:09:18.872Z,14.10
2022-10-17T22:11:56.741Z,14.00
2022-10-17T22:14:29.314Z,14.00
2022-10-17T22:17:02.022Z,14.00
2022-10-17T22:19:34.554Z,14.00
2022-10-17T22:22:07.275Z,14.00
2022-10-17T22:24:39.859Z,14.00
2022-10-17T22:27:12.517Z,14.00
2022-10-17T22:29:45.011Z,13.80
2022-10-17T22:32:21.506Z,13.80
2022-10-17T22:34:55.115Z,13.70
2022-10-17T22:37:27.899Z,13.60
2022-10-17T22:40:00.463Z,13.70
2022-10-17T22:42:34.561Z,13.70
2022-10-17T22:45:07.444Z,13.70
2022-10-17T22:47:40.082Z,13.70
2022-10-17T22:50:12.588Z,13.70
2022-10-17T22:52:45.231Z,13.70
2022-10-17T22:55:17.867Z,13.80
2022-10-17T22:57:50.620Z,13.70
2022-10-17T23:00:23.186Z,13.70
2022-10-17T23:02:56.133Z,13.70
2022-10-17T23:05:28.969Z,13.70
2022-10-17T23:08:01.669Z,13.70
2022-10-17T23:10:34.462Z,13.70
2022-10-17T23:13:07.236Z,13.60
2022-10-17T23:15:40.215Z,13.60
2022-10-17T23:18:13.024Z,13.60
2022-10-17T23:20:45.708Z,13.50
2022-10-17T23:23:19.079Z,13.50
2022-10-17T23:25:51.642Z,13.50
2022-10-17T23:28:24.365Z,13.50
2022-10-17T23:30:56.936Z,13.60
2022-10-17T23:33:29.582Z,13.60
2022-10-17T23:36:05.301Z,13.50
2022-10-17T23:38:39.371Z,13.60
2022-10-17T23:41:12.375Z,13.60
2022-10-17T23:43:45.177Z,13.50
2022-10-17T23:46:17.666Z,13.50
2022-10-17T23:48:50.637Z,13.50
2022-10-17T23:51:23.529Z,13.50
2022-10-17T23:53:56.453Z,13.40
2022-10-17T23:56:28.898Z,13.40
2022-10-17T23:59:01.700Z,13.40
